sensor_id;sensor_type;location;lat;lon;timestamp;P1;durP1;ratioP1;P2;durP2;ratioP2
51614;SDS011;37695;52.960;6.188;2023-02-27T00:00:15;7.85;;;2.80;;
51614;SDS011;37695;52.960;6.188;2023-02-27T00:02:43;5.20;;;2.40;;
51614;SDS011;37695;52.960;6.188;2023-02-27T00:05:09;6.70;;;3.17;;
51614;SDS011;37695;52.960;6.188;2023-02-27T00:07:35;7.22;;;3.28;;
51614;SDS011;37695;52.960;6.188;2023-02-27T00:10:01;4.47;;;2.40;;
51614;SDS011;37695;52.960;6.188;2023-02-27T00:12:27;6.05;;;2.38;;
51614;SDS011;37695;52.960;6.188;2023-02-27T00:14:52;5.72;;;2.50;;
51614;SDS011;37695;52.960;6.188;2023-02-27T00:17:18;11.80;;;5.38;;
51614;SDS011;37695;52.960;6.188;2023-02-27T00:19:43;6.82;;;2.67;;
51614;SDS011;37695;52.960;6.188;2023-02-27T00:22:09;13.70;;;5.15;;
51614;SDS011;37695;52.960;6.188;2023-02-27T00:24:34;7.07;;;2.90;;
51614;SDS011;37695;52.960;6.188;2023-02-27T00:27:00;6.40;;;2.90;;
51614;SDS011;37695;52.960;6.188;2023-02-27T00:29:26;4.63;;;2.35;;
51614;SDS011;37695;52.960;6.188;2023-02-27T00:31:51;4.70;;;2.45;;
51614;SDS011;37695;52.960;6.188;2023-02-27T00:34:17;6.78;;;2.65;;
51614;SDS011;37695;52.960;6.188;2023-02-27T00:36:42;5.97;;;2.33;;
51614;SDS011;37695;52.960;6.188;2023-02-27T00:39:08;6.30;;;2.85;;
51614;SDS011;37695;52.960;6.188;2023-02-27T00:41:33;4.93;;;2.53;;
51614;SDS011;37695;52.960;6.188;2023-02-27T00:43:59;4.00;;;2.17;;
51614;SDS011;37695;52.960;6.188;2023-02-27T00:46:24;5.45;;;2.70;;
51614;SDS011;37695;52.960;6.188;2023-02-27T00:48:50;5.53;;;2.55;;
51614;SDS011;37695;52.960;6.188;2023-02-27T00:51:16;4.85;;;2.45;;
51614;SDS011;37695;52.960;6.188;2023-02-27T00:53:44;7.90;;;2.58;;
51614;SDS011;37695;52.960;6.188;2023-02-27T00:56:09;5.00;;;2.40;;
51614;SDS011;37695;52.960;6.188;2023-02-27T00:58:35;6.53;;;2.90;;
51614;SDS011;37695;52.960;6.188;2023-02-27T01:01:00;5.18;;;2.60;;
51614;SDS011;37695;52.960;6.188;2023-02-27T01:03:26;4.88;;;2.58;;
51614;SDS011;37695;52.960;6.188;2023-02-27T01:05:51;5.32;;;2.53;;
51614;SDS011;37695;52.960;6.188;2023-02-27T01:08:17;7.43;;;2.72;;
51614;SDS011;37695;52.960;6.188;2023-02-27T01:10:44;5.65;;;2.97;;
51614;SDS011;37695;52.960;6.188;2023-02-27T01:13:09;5.57;;;2.55;;
51614;SDS011;37695;52.960;6.188;2023-02-27T01:15:35;5.30;;;2.30;;
51614;SDS011;37695;52.960;6.188;2023-02-27T01:18:00;5.35;;;2.55;;
51614;SDS011;37695;52.960;6.188;2023-02-27T01:20:26;7.57;;;3.30;;
51614;SDS011;37695;52.960;6.188;2023-02-27T01:22:51;4.82;;;2.75;;
51614;SDS011;37695;52.960;6.188;2023-02-27T01:25:17;7.88;;;3.35;;
51614;SDS011;37695;52.960;6.188;2023-02-27T01:27:43;6.22;;;2.70;;
51614;SDS011;37695;52.960;6.188;2023-02-27T01:30:08;6.78;;;3.30;;
51614;SDS011;37695;52.960;6.188;2023-02-27T01:32:35;5.03;;;2.50;;
51614;SDS011;37695;52.960;6.188;2023-02-27T01:35:01;4.63;;;2.58;;
51614;SDS011;37695;52.960;6.188;2023-02-27T01:37:26;7.05;;;3.15;;
51614;SDS011;37695;52.960;6.188;2023-02-27T01:39:52;5.45;;;2.90;;
51614;SDS011;37695;52.960;6.188;2023-02-27T01:42:19;8.52;;;3.55;;
51614;SDS011;37695;52.960;6.188;2023-02-27T01:45:06;7.47;;;2.92;;
51614;SDS011;37695;52.960;6.188;2023-02-27T01:47:53;6.65;;;3.13;;
51614;SDS011;37695;52.960;6.188;2023-02-27T01:50:23;7.80;;;2.70;;
51614;SDS011;37695;52.960;6.188;2023-02-27T01:52:53;7.32;;;3.25;;
51614;SDS011;37695;52.960;6.188;2023-02-27T01:55:22;8.82;;;2.90;;
51614;SDS011;37695;52.960;6.188;2023-02-27T01:57:49;5.70;;;2.97;;
51614;SDS011;37695;52.960;6.188;2023-02-27T02:00:17;7.70;;;2.60;;
51614;SDS011;37695;52.960;6.188;2023-02-27T02:02:45;6.93;;;3.13;;
51614;SDS011;37695;52.960;6.188;2023-02-27T02:05:16;7.38;;;3.13;;
51614;SDS011;37695;52.960;6.188;2023-02-27T02:07:43;7.13;;;3.10;;
51614;SDS011;37695;52.960;6.188;2023-02-27T02:10:10;6.80;;;3.28;;
51614;SDS011;37695;52.960;6.188;2023-02-27T02:12:39;8.00;;;3.08;;
51614;SDS011;37695;52.960;6.188;2023-02-27T02:15:05;5.35;;;2.92;;
51614;SDS011;37695;52.960;6.188;2023-02-27T02:17:36;5.22;;;3.10;;
51614;SDS011;37695;52.960;6.188;2023-02-27T02:26:36;6.78;;;2.88;;
51614;SDS011;37695;52.960;6.188;2023-02-27T02:32:35;6.68;;;2.97;;
51614;SDS011;37695;52.960;6.188;2023-02-27T02:45:39;6.80;;;2.80;;
51614;SDS011;37695;52.960;6.188;2023-02-27T02:53:41;5.63;;;3.00;;
51614;SDS011;37695;52.960;6.188;2023-02-27T02:56:26;5.82;;;2.65;;
51614;SDS011;37695;52.960;6.188;2023-02-27T03:01:42;10.07;;;3.20;;
51614;SDS011;37695;52.960;6.188;2023-02-27T03:04:23;7.57;;;3.00;;
51614;SDS011;37695;52.960;6.188;2023-02-27T03:06:57;6.45;;;2.83;;
51614;SDS011;37695;52.960;6.188;2023-02-27T03:09:36;5.53;;;2.70;;
51614;SDS011;37695;52.960;6.188;2023-02-27T03:12:08;6.90;;;3.10;;
51614;SDS011;37695;52.960;6.188;2023-02-27T03:14:39;7.05;;;3.45;;
51614;SDS011;37695;52.960;6.188;2023-02-27T03:17:25;10.90;;;3.33;;
51614;SDS011;37695;52.960;6.188;2023-02-27T03:19:56;5.70;;;3.20;;
51614;SDS011;37695;52.960;6.188;2023-02-27T03:22:27;8.30;;;3.33;;
51614;SDS011;37695;52.960;6.188;2023-02-27T03:25:03;5.75;;;2.92;;
51614;SDS011;37695;52.960;6.188;2023-02-27T03:27:34;6.97;;;3.15;;
51614;SDS011;37695;52.960;6.188;2023-02-27T03:35:06;5.38;;;2.75;;
51614;SDS011;37695;52.960;6.188;2023-02-27T03:37:52;7.03;;;3.10;;
51614;SDS011;37695;52.960;6.188;2023-02-27T03:40:34;6.32;;;3.03;;
51614;SDS011;37695;52.960;6.188;2023-02-27T03:48:28;7.55;;;3.63;;
51614;SDS011;37695;52.960;6.188;2023-02-27T03:50:54;7.05;;;3.20;;
51614;SDS011;37695;52.960;6.188;2023-02-27T03:53:26;5.07;;;2.85;;
51614;SDS011;37695;52.960;6.188;2023-02-27T03:56:00;6.30;;;3.00;;
51614;SDS011;37695;52.960;6.188;2023-02-27T03:58:29;6.80;;;3.10;;
51614;SDS011;37695;52.960;6.188;2023-02-27T04:00:54;7.95;;;2.83;;
51614;SDS011;37695;52.960;6.188;2023-02-27T04:03:20;5.63;;;3.15;;
51614;SDS011;37695;52.960;6.188;2023-02-27T04:05:46;7.25;;;3.33;;
51614;SDS011;37695;52.960;6.188;2023-02-27T04:08:23;9.75;;;2.78;;
51614;SDS011;37695;52.960;6.188;2023-02-27T04:11:22;6.88;;;3.00;;
51614;SDS011;37695;52.960;6.188;2023-02-27T04:16:37;5.00;;;2.63;;
51614;SDS011;37695;52.960;6.188;2023-02-27T04:19:36;6.93;;;2.83;;
51614;SDS011;37695;52.960;6.188;2023-02-27T04:22:29;8.10;;;2.90;;
51614;SDS011;37695;52.960;6.188;2023-02-27T04:28:08;7.30;;;3.28;;
51614;SDS011;37695;52.960;6.188;2023-02-27T04:30:45;6.15;;;3.05;;
51614;SDS011;37695;52.960;6.188;2023-02-27T04:33:24;5.07;;;2.47;;
51614;SDS011;37695;52.960;6.188;2023-02-27T04:36:07;5.40;;;3.00;;
51614;SDS011;37695;52.960;6.188;2023-02-27T04:41:52;5.15;;;2.88;;
51614;SDS011;37695;52.960;6.188;2023-02-27T04:44:24;4.32;;;2.42;;
51614;SDS011;37695;52.960;6.188;2023-02-27T04:46:52;7.20;;;3.10;;
51614;SDS011;37695;52.960;6.188;2023-02-27T04:49:25;7.32;;;3.10;;
51614;SDS011;37695;52.960;6.188;2023-02-27T04:52:06;6.97;;;3.03;;
51614;SDS011;37695;52.960;6.188;2023-02-27T04:54:46;5.85;;;2.60;;
51614;SDS011;37695;52.960;6.188;2023-02-27T04:57:18;5.15;;;2.55;;
51614;SDS011;37695;52.960;6.188;2023-02-27T04:59:50;4.70;;;2.05;;
51614;SDS011;37695;52.960;6.188;2023-02-27T05:02:22;4.47;;;2.25;;
51614;SDS011;37695;52.960;6.188;2023-02-27T05:04:53;4.32;;;2.40;;
51614;SDS011;37695;52.960;6.188;2023-02-27T05:07:24;8.43;;;3.47;;
51614;SDS011;37695;52.960;6.188;2023-02-27T05:09:58;5.43;;;2.92;;
51614;SDS011;37695;52.960;6.188;2023-02-27T05:12:47;3.83;;;2.42;;
51614;SDS011;37695;52.960;6.188;2023-02-27T05:15:20;4.18;;;2.45;;
51614;SDS011;37695;52.960;6.188;2023-02-27T05:17:56;6.85;;;2.63;;
51614;SDS011;37695;52.960;6.188;2023-02-27T05:20:44;6.25;;;2.70;;
51614;SDS011;37695;52.960;6.188;2023-02-27T05:29:00;6.72;;;2.47;;
51614;SDS011;37695;52.960;6.188;2023-02-27T05:31:43;4.45;;;2.63;;
51614;SDS011;37695;52.960;6.188;2023-02-27T05:34:17;6.85;;;2.60;;
51614;SDS011;37695;52.960;6.188;2023-02-27T05:36:54;6.13;;;2.65;;
51614;SDS011;37695;52.960;6.188;2023-02-27T05:39:22;6.30;;;2.75;;
51614;SDS011;37695;52.960;6.188;2023-02-27T05:42:01;10.02;;;2.70;;
51614;SDS011;37695;52.960;6.188;2023-02-27T05:44:33;9.85;;;2.70;;
51614;SDS011;37695;52.960;6.188;2023-02-27T05:47:04;4.57;;;2.60;;
51614;SDS011;37695;52.960;6.188;2023-02-27T05:49:36;5.72;;;2.60;;
51614;SDS011;37695;52.960;6.188;2023-02-27T05:52:06;9.88;;;2.70;;
51614;SDS011;37695;52.960;6.188;2023-02-27T05:57:25;7.35;;;3.03;;
51614;SDS011;37695;52.960;6.188;2023-02-27T06:00:07;4.72;;;2.90;;
51614;SDS011;37695;52.960;6.188;2023-02-27T06:02:40;3.63;;;2.20;;
51614;SDS011;37695;52.960;6.188;2023-02-27T06:05:07;10.35;;;3.03;;
51614;SDS011;37695;52.960;6.188;2023-02-27T06:07:34;5.20;;;2.53;;
51614;SDS011;37695;52.960;6.188;2023-02-27T06:10:00;5.35;;;2.53;;
51614;SDS011;37695;52.960;6.188;2023-02-27T06:12:26;9.88;;;3.03;;
51614;SDS011;37695;52.960;6.188;2023-02-27T06:14:51;5.65;;;2.80;;
51614;SDS011;37695;52.960;6.188;2023-02-27T06:17:17;6.65;;;3.00;;
51614;SDS011;37695;52.960;6.188;2023-02-27T06:19:42;4.93;;;2.72;;
51614;SDS011;37695;52.960;6.188;2023-02-27T06:22:08;6.65;;;2.65;;
51614;SDS011;37695;52.960;6.188;2023-02-27T06:24:35;8.60;;;2.78;;
51614;SDS011;37695;52.960;6.188;2023-02-27T06:27:01;6.15;;;2.83;;
51614;SDS011;37695;52.960;6.188;2023-02-27T06:29:26;8.05;;;2.90;;
51614;SDS011;37695;52.960;6.188;2023-02-27T06:31:52;6.60;;;2.70;;
51614;SDS011;37695;52.960;6.188;2023-02-27T06:34:17;4.90;;;2.35;;
51614;SDS011;37695;52.960;6.188;2023-02-27T06:36:43;5.30;;;2.58;;
51614;SDS011;37695;52.960;6.188;2023-02-27T06:39:09;7.25;;;2.40;;
51614;SDS011;37695;52.960;6.188;2023-02-27T06:41:34;5.65;;;2.60;;
51614;SDS011;37695;52.960;6.188;2023-02-27T06:44:00;5.00;;;2.55;;
51614;SDS011;37695;52.960;6.188;2023-02-27T06:46:26;4.63;;;2.35;;
51614;SDS011;37695;52.960;6.188;2023-02-27T06:48:51;9.23;;;2.70;;
51614;SDS011;37695;52.960;6.188;2023-02-27T06:51:17;6.85;;;2.40;;
51614;SDS011;37695;52.960;6.188;2023-02-27T06:53:42;6.82;;;2.67;;
51614;SDS011;37695;52.960;6.188;2023-02-27T06:56:08;5.18;;;2.63;;
51614;SDS011;37695;52.960;6.188;2023-02-27T06:58:34;5.53;;;2.40;;
51614;SDS011;37695;52.960;6.188;2023-02-27T07:00:59;5.95;;;2.78;;
51614;SDS011;37695;52.960;6.188;2023-02-27T07:03:25;4.75;;;2.60;;
51614;SDS011;37695;52.960;6.188;2023-02-27T07:05:50;4.88;;;2.38;;
51614;SDS011;37695;52.960;6.188;2023-02-27T07:08:16;5.88;;;2.58;;
51614;SDS011;37695;52.960;6.188;2023-02-27T07:10:42;5.47;;;2.40;;
51614;SDS011;37695;52.960;6.188;2023-02-27T07:13:11;4.82;;;2.40;;
51614;SDS011;37695;52.960;6.188;2023-02-27T07:15:38;5.70;;;2.13;;
51614;SDS011;37695;52.960;6.188;2023-02-27T07:18:04;5.38;;;2.60;;
51614;SDS011;37695;52.960;6.188;2023-02-27T07:20:29;4.35;;;2.50;;
51614;SDS011;37695;52.960;6.188;2023-02-27T07:22:55;5.38;;;2.85;;
51614;SDS011;37695;52.960;6.188;2023-02-27T07:25:20;6.45;;;2.63;;
51614;SDS011;37695;52.960;6.188;2023-02-27T07:27:46;4.30;;;2.60;;
51614;SDS011;37695;52.960;6.188;2023-02-27T07:30:14;6.20;;;3.15;;
51614;SDS011;37695;52.960;6.188;2023-02-27T07:32:39;5.03;;;2.78;;
51614;SDS011;37695;52.960;6.188;2023-02-27T07:35:05;5.47;;;2.60;;
51614;SDS011;37695;52.960;6.188;2023-02-27T07:37:31;4.30;;;2.05;;
51614;SDS011;37695;52.960;6.188;2023-02-27T07:39:57;4.57;;;2.38;;
51614;SDS011;37695;52.960;6.188;2023-02-27T07:42:22;3.90;;;2.40;;
51614;SDS011;37695;52.960;6.188;2023-02-27T07:44:48;4.43;;;2.55;;
51614;SDS011;37695;52.960;6.188;2023-02-27T07:47:14;5.63;;;2.30;;
51614;SDS011;37695;52.960;6.188;2023-02-27T07:49:41;5.25;;;2.15;;
51614;SDS011;37695;52.960;6.188;2023-02-27T07:52:07;4.53;;;2.50;;
51614;SDS011;37695;52.960;6.188;2023-02-27T07:54:32;7.53;;;2.55;;
51614;SDS011;37695;52.960;6.188;2023-02-27T07:56:58;6.10;;;2.88;;
51614;SDS011;37695;52.960;6.188;2023-02-27T07:59:24;4.28;;;2.38;;
51614;SDS011;37695;52.960;6.188;2023-02-27T08:01:49;4.25;;;2.50;;
51614;SDS011;37695;52.960;6.188;2023-02-27T08:04:15;4.93;;;2.42;;
51614;SDS011;37695;52.960;6.188;2023-02-27T08:06:40;6.13;;;2.63;;
51614;SDS011;37695;52.960;6.188;2023-02-27T08:09:06;5.35;;;2.38;;
51614;SDS011;37695;52.960;6.188;2023-02-27T08:11:31;5.32;;;2.55;;
51614;SDS011;37695;52.960;6.188;2023-02-27T08:13:57;7.22;;;2.55;;
51614;SDS011;37695;52.960;6.188;2023-02-27T08:16:23;5.32;;;2.28;;
51614;SDS011;37695;52.960;6.188;2023-02-27T08:18:48;4.45;;;2.50;;
51614;SDS011;37695;52.960;6.188;2023-02-27T08:21:14;4.20;;;2.22;;
51614;SDS011;37695;52.960;6.188;2023-02-27T08:23:39;4.07;;;2.22;;
51614;SDS011;37695;52.960;6.188;2023-02-27T08:26:05;6.40;;;2.25;;
51614;SDS011;37695;52.960;6.188;2023-02-27T08:28:30;3.47;;;1.92;;
51614;SDS011;37695;52.960;6.188;2023-02-27T08:30:56;6.07;;;2.35;;
51614;SDS011;37695;52.960;6.188;2023-02-27T08:33:22;6.05;;;2.30;;
51614;SDS011;37695;52.960;6.188;2023-02-27T08:35:48;5.50;;;2.30;;
51614;SDS011;37695;52.960;6.188;2023-02-27T08:38:14;5.05;;;1.85;;
51614;SDS011;37695;52.960;6.188;2023-02-27T08:40:39;4.38;;;2.00;;
51614;SDS011;37695;52.960;6.188;2023-02-27T08:43:05;5.85;;;2.30;;
51614;SDS011;37695;52.960;6.188;2023-02-27T08:45:31;6.70;;;2.40;;
51614;SDS011;37695;52.960;6.188;2023-02-27T08:47:56;5.25;;;2.30;;
51614;SDS011;37695;52.960;6.188;2023-02-27T08:50:22;5.57;;;2.40;;
51614;SDS011;37695;52.960;6.188;2023-02-27T08:52:47;8.60;;;2.28;;
51614;SDS011;37695;52.960;6.188;2023-02-27T08:55:13;5.63;;;2.03;;
51614;SDS011;37695;52.960;6.188;2023-02-27T08:57:39;9.27;;;1.90;;
51614;SDS011;37695;52.960;6.188;2023-02-27T09:00:05;7.97;;;1.90;;
51614;SDS011;37695;52.960;6.188;2023-02-27T09:02:31;6.97;;;2.25;;
51614;SDS011;37695;52.960;6.188;2023-02-27T09:04:57;4.60;;;2.08;;
51614;SDS011;37695;52.960;6.188;2023-02-27T09:07:23;6.00;;;1.58;;
51614;SDS011;37695;52.960;6.188;2023-02-27T09:09:49;6.50;;;1.65;;
51614;SDS011;37695;52.960;6.188;2023-02-27T09:12:15;3.00;;;1.48;;
51614;SDS011;37695;52.960;6.188;2023-02-27T09:14:41;4.97;;;2.28;;
51614;SDS011;37695;52.960;6.188;2023-02-27T09:17:06;5.97;;;1.85;;
51614;SDS011;37695;52.960;6.188;2023-02-27T09:19:32;4.75;;;1.92;;
51614;SDS011;37695;52.960;6.188;2023-02-27T09:21:58;6.43;;;2.17;;
51614;SDS011;37695;52.960;6.188;2023-02-27T09:24:23;4.97;;;2.70;;
51614;SDS011;37695;52.960;6.188;2023-02-27T09:26:49;6.10;;;1.90;;
51614;SDS011;37695;52.960;6.188;2023-02-27T09:29:15;5.18;;;1.73;;
51614;SDS011;37695;52.960;6.188;2023-02-27T09:31:41;4.00;;;1.70;;
51614;SDS011;37695;52.960;6.188;2023-02-27T09:34:06;4.35;;;1.45;;
51614;SDS011;37695;52.960;6.188;2023-02-27T09:36:32;5.45;;;1.83;;
51614;SDS011;37695;52.960;6.188;2023-02-27T09:38:58;3.35;;;1.38;;
51614;SDS011;37695;52.960;6.188;2023-02-27T09:47:12;5.75;;;1.67;;
51614;SDS011;37695;52.960;6.188;2023-02-27T09:50:03;5.72;;;1.58;;
51614;SDS011;37695;52.960;6.188;2023-02-27T09:52:31;4.28;;;1.85;;
51614;SDS011;37695;52.960;6.188;2023-02-27T09:55:00;6.95;;;1.67;;
51614;SDS011;37695;52.960;6.188;2023-02-27T09:57:31;5.38;;;1.67;;
51614;SDS011;37695;52.960;6.188;2023-02-27T10:00:14;8.00;;;1.73;;
51614;SDS011;37695;52.960;6.188;2023-02-27T10:05:30;3.97;;;1.50;;
51614;SDS011;37695;52.960;6.188;2023-02-27T10:08:45;4.72;;;1.55;;
51614;SDS011;37695;52.960;6.188;2023-02-27T10:11:02;5.43;;;1.90;;
51614;SDS011;37695;52.960;6.188;2023-02-27T10:16:40;6.18;;;1.75;;
51614;SDS011;37695;52.960;6.188;2023-02-27T10:19:11;4.80;;;1.65;;
51614;SDS011;37695;52.960;6.188;2023-02-27T10:21:42;3.10;;;1.48;;
51614;SDS011;37695;52.960;6.188;2023-02-27T10:27:01;8.38;;;1.98;;
51614;SDS011;37695;52.960;6.188;2023-02-27T10:29:34;4.30;;;1.77;;
51614;SDS011;37695;52.960;6.188;2023-02-27T10:34:51;2.75;;;1.20;;
51614;SDS011;37695;52.960;6.188;2023-02-27T10:37:31;3.78;;;1.50;;
51614;SDS011;37695;52.960;6.188;2023-02-27T10:40:00;3.78;;;1.60;;
51614;SDS011;37695;52.960;6.188;2023-02-27T10:42:33;1.92;;;1.20;;
51614;SDS011;37695;52.960;6.188;2023-02-27T10:45:02;6.95;;;1.42;;
51614;SDS011;37695;52.960;6.188;2023-02-27T10:47:28;3.75;;;1.42;;
51614;SDS011;37695;52.960;6.188;2023-02-27T10:49:55;1.80;;;0.90;;
51614;SDS011;37695;52.960;6.188;2023-02-27T10:52:21;3.15;;;1.20;;
51614;SDS011;37695;52.960;6.188;2023-02-27T10:54:46;5.07;;;1.40;;
51614;SDS011;37695;52.960;6.188;2023-02-27T10:59:53;3.22;;;1.13;;
51614;SDS011;37695;52.960;6.188;2023-02-27T11:02:34;3.13;;;1.13;;
51614;SDS011;37695;52.960;6.188;2023-02-27T11:05:03;6.03;;;1.40;;
51614;SDS011;37695;52.960;6.188;2023-02-27T11:07:44;4.55;;;1.25;;
51614;SDS011;37695;52.960;6.188;2023-02-27T11:12:40;2.47;;;1.02;;
51614;SDS011;37695;52.960;6.188;2023-02-27T11:17:38;4.95;;;1.10;;
51614;SDS011;37695;52.960;6.188;2023-02-27T11:20:04;4.25;;;0.93;;
51614;SDS011;37695;52.960;6.188;2023-02-27T11:22:55;3.15;;;0.80;;
51614;SDS011;37695;52.960;6.188;2023-02-27T11:25:38;3.40;;;1.13;;
51614;SDS011;37695;52.960;6.188;2023-02-27T11:30:38;2.88;;;1.00;;
51614;SDS011;37695;52.960;6.188;2023-02-27T11:33:15;3.00;;;0.90;;
51614;SDS011;37695;52.960;6.188;2023-02-27T11:35:47;5.20;;;1.05;;
51614;SDS011;37695;52.960;6.188;2023-02-27T11:38:16;1.55;;;0.90;;
51614;SDS011;37695;52.960;6.188;2023-02-27T11:40:58;4.63;;;1.48;;
51614;SDS011;37695;52.960;6.188;2023-02-27T11:46:00;2.45;;;0.85;;
51614;SDS011;37695;52.960;6.188;2023-02-27T11:48:30;2.75;;;0.90;;
51614;SDS011;37695;52.960;6.188;2023-02-27T11:51:10;3.00;;;0.93;;
51614;SDS011;37695;52.960;6.188;2023-02-27T11:56:34;3.30;;;1.08;;
51614;SDS011;37695;52.960;6.188;2023-02-27T12:01:37;2.78;;;1.00;;
51614;SDS011;37695;52.960;6.188;2023-02-27T12:04:38;3.63;;;0.93;;
51614;SDS011;37695;52.960;6.188;2023-02-27T12:12:32;3.97;;;0.90;;
51614;SDS011;37695;52.960;6.188;2023-02-27T12:15:21;3.63;;;0.82;;
51614;SDS011;37695;52.960;6.188;2023-02-27T12:20:40;1.98;;;0.88;;
51614;SDS011;37695;52.960;6.188;2023-02-27T12:23:15;2.45;;;1.20;;
51614;SDS011;37695;52.960;6.188;2023-02-27T12:25:51;1.33;;;0.70;;
51614;SDS011;37695;52.960;6.188;2023-02-27T12:28:34;1.52;;;0.93;;
51614;SDS011;37695;52.960;6.188;2023-02-27T12:31:19;2.50;;;0.80;;
51614;SDS011;37695;52.960;6.188;2023-02-27T12:36:44;1.55;;;0.70;;
51614;SDS011;37695;52.960;6.188;2023-02-27T12:39:18;2.53;;;0.70;;
51614;SDS011;37695;52.960;6.188;2023-02-27T12:42:00;2.47;;;0.90;;
51614;SDS011;37695;52.960;6.188;2023-02-27T12:44:45;1.55;;;0.75;;
51614;SDS011;37695;52.960;6.188;2023-02-27T12:55:22;2.00;;;0.90;;
51614;SDS011;37695;52.960;6.188;2023-02-27T13:00:58;2.40;;;0.80;;
51614;SDS011;37695;52.960;6.188;2023-02-27T13:08:57;1.38;;;0.68;;
51614;SDS011;37695;52.960;6.188;2023-02-27T13:14:15;1.38;;;0.98;;
51614;SDS011;37695;52.960;6.188;2023-02-27T13:16:45;0.63;;;0.63;;
51614;SDS011;37695;52.960;6.188;2023-02-27T13:19:35;1.20;;;0.77;;
51614;SDS011;37695;52.960;6.188;2023-02-27T13:22:15;1.70;;;0.70;;
51614;SDS011;37695;52.960;6.188;2023-02-27T13:25:03;1.60;;;0.90;;
51614;SDS011;37695;52.960;6.188;2023-02-27T13:27:37;0.80;;;0.70;;
51614;SDS011;37695;52.960;6.188;2023-02-27T13:30:26;0.75;;;0.65;;
51614;SDS011;37695;52.960;6.188;2023-02-27T13:33:06;0.98;;;0.80;;
51614;SDS011;37695;52.960;6.188;2023-02-27T13:38:55;0.82;;;0.68;;
51614;SDS011;37695;52.960;6.188;2023-02-27T13:44:36;1.17;;;0.82;;
51614;SDS011;37695;52.960;6.188;2023-02-27T13:46:45;0.70;;;0.70;;
51614;SDS011;37695;52.960;6.188;2023-02-27T13:56:43;1.20;;;0.68;;
51614;SDS011;37695;52.960;6.188;2023-02-27T14:04:28;1.38;;;0.70;;
51614;SDS011;37695;52.960;6.188;2023-02-27T14:07:02;1.27;;;0.70;;
51614;SDS011;37695;52.960;6.188;2023-02-27T14:09:32;1.75;;;0.90;;
51614;SDS011;37695;52.960;6.188;2023-02-27T14:12:04;1.30;;;0.73;;
51614;SDS011;37695;52.960;6.188;2023-02-27T14:14:35;0.77;;;0.63;;
51614;SDS011;37695;52.960;6.188;2023-02-27T14:17:10;1.30;;;0.80;;
51614;SDS011;37695;52.960;6.188;2023-02-27T14:24:54;0.98;;;0.63;;
51614;SDS011;37695;52.960;6.188;2023-02-27T14:27:28;2.17;;;1.10;;
51614;SDS011;37695;52.960;6.188;2023-02-27T14:29:57;2.67;;;0.83;;
51614;SDS011;37695;52.960;6.188;2023-02-27T14:32:33;1.70;;;0.80;;
51614;SDS011;37695;52.960;6.188;2023-02-27T14:35:00;2.65;;;0.60;;
51614;SDS011;37695;52.960;6.188;2023-02-27T14:37:29;1.85;;;0.65;;
51614;SDS011;37695;52.960;6.188;2023-02-27T14:39:55;1.90;;;0.80;;
51614;SDS011;37695;52.960;6.188;2023-02-27T14:44:57;2.35;;;0.98;;
51614;SDS011;37695;52.960;6.188;2023-02-27T14:47:25;1.10;;;0.68;;
51614;SDS011;37695;52.960;6.188;2023-02-27T14:49:58;0.98;;;0.65;;
51614;SDS011;37695;52.960;6.188;2023-02-27T14:52:26;2.03;;;0.80;;
51614;SDS011;37695;52.960;6.188;2023-02-27T14:57:54;3.33;;;1.10;;
51614;SDS011;37695;52.960;6.188;2023-02-27T15:02:59;1.83;;;0.85;;
51614;SDS011;37695;52.960;6.188;2023-02-27T15:05:53;2.30;;;0.90;;
51614;SDS011;37695;52.960;6.188;2023-02-27T15:08:25;1.33;;;0.80;;
51614;SDS011;37695;52.960;6.188;2023-02-27T15:10:54;0.82;;;0.50;;
51614;SDS011;37695;52.960;6.188;2023-02-27T15:13:28;2.20;;;0.80;;
51614;SDS011;37695;52.960;6.188;2023-02-27T15:18:40;1.90;;;0.70;;
51614;SDS011;37695;52.960;6.188;2023-02-27T15:21:11;2.25;;;0.80;;
51614;SDS011;37695;52.960;6.188;2023-02-27T15:23:39;1.75;;;0.82;;
51614;SDS011;37695;52.960;6.188;2023-02-27T15:26:05;0.90;;;0.70;;
51614;SDS011;37695;52.960;6.188;2023-02-27T15:28:36;3.63;;;0.70;;
51614;SDS011;37695;52.960;6.188;2023-02-27T15:31:03;2.10;;;0.70;;
51614;SDS011;37695;52.960;6.188;2023-02-27T15:33:31;2.92;;;0.80;;
51614;SDS011;37695;52.960;6.188;2023-02-27T15:35:57;4.65;;;1.27;;
51614;SDS011;37695;52.960;6.188;2023-02-27T15:38:28;0.80;;;0.65;;
51614;SDS011;37695;52.960;6.188;2023-02-27T15:40:56;3.63;;;0.77;;
51614;SDS011;37695;52.960;6.188;2023-02-27T15:43:22;1.67;;;0.73;;
51614;SDS011;37695;52.960;6.188;2023-02-27T15:45:50;1.33;;;0.60;;
51614;SDS011;37695;52.960;6.188;2023-02-27T15:48:16;1.85;;;0.90;;
51614;SDS011;37695;52.960;6.188;2023-02-27T15:50:44;1.30;;;0.60;;
51614;SDS011;37695;52.960;6.188;2023-02-27T15:53:22;1.38;;;0.70;;
51614;SDS011;37695;52.960;6.188;2023-02-27T15:55:53;2.58;;;0.88;;
51614;SDS011;37695;52.960;6.188;2023-02-27T15:58:25;3.35;;;0.88;;
51614;SDS011;37695;52.960;6.188;2023-02-27T16:01:38;0.93;;;0.63;;
51614;SDS011;37695;52.960;6.188;2023-02-27T16:03:45;2.30;;;0.68;;
51614;SDS011;37695;52.960;6.188;2023-02-27T16:06:20;1.17;;;0.60;;
51614;SDS011;37695;52.960;6.188;2023-02-27T16:14:48;1.60;;;0.70;;
51614;SDS011;37695;52.960;6.188;2023-02-27T16:17:30;2.20;;;0.75;;
51614;SDS011;37695;52.960;6.188;2023-02-27T16:19:57;2.17;;;0.70;;
51614;SDS011;37695;52.960;6.188;2023-02-27T16:22:25;3.70;;;0.90;;
51614;SDS011;37695;52.960;6.188;2023-02-27T16:24:52;2.95;;;0.90;;
51614;SDS011;37695;52.960;6.188;2023-02-27T16:27:24;1.73;;;0.60;;
51614;SDS011;37695;52.960;6.188;2023-02-27T16:29:54;2.17;;;1.15;;
51614;SDS011;37695;52.960;6.188;2023-02-27T16:34:59;1.85;;;0.70;;
51614;SDS011;37695;52.960;6.188;2023-02-27T16:37:39;2.13;;;0.80;;
51614;SDS011;37695;52.960;6.188;2023-02-27T16:40:16;4.05;;;0.90;;
51614;SDS011;37695;52.960;6.188;2023-02-27T16:42:49;2.53;;;0.70;;
51614;SDS011;37695;52.960;6.188;2023-02-27T16:45:19;1.98;;;0.80;;
51614;SDS011;37695;52.960;6.188;2023-02-27T16:47:49;3.72;;;0.77;;
51614;SDS011;37695;52.960;6.188;2023-02-27T16:50:25;3.63;;;1.08;;
51614;SDS011;37695;52.960;6.188;2023-02-27T16:52:53;1.40;;;0.75;;
51614;SDS011;37695;52.960;6.188;2023-02-27T16:55:19;3.67;;;0.82;;
51614;SDS011;37695;52.960;6.188;2023-02-27T16:57:45;1.98;;;0.93;;
51614;SDS011;37695;52.960;6.188;2023-02-27T17:00:11;2.22;;;0.95;;
51614;SDS011;37695;52.960;6.188;2023-02-27T17:02:38;1.15;;;0.65;;
51614;SDS011;37695;52.960;6.188;2023-02-27T17:05:04;2.47;;;1.00;;
51614;SDS011;37695;52.960;6.188;2023-02-27T17:07:30;1.70;;;0.80;;
51614;SDS011;37695;52.960;6.188;2023-02-27T17:09:56;0.77;;;0.77;;
51614;SDS011;37695;52.960;6.188;2023-02-27T17:12:22;3.13;;;0.70;;
51614;SDS011;37695;52.960;6.188;2023-02-27T17:14:47;1.70;;;0.80;;
51614;SDS011;37695;52.960;6.188;2023-02-27T17:17:13;2.78;;;0.63;;
51614;SDS011;37695;52.960;6.188;2023-02-27T17:19:38;5.88;;;1.08;;
51614;SDS011;37695;52.960;6.188;2023-02-27T17:22:04;3.13;;;0.68;;
51614;SDS011;37695;52.960;6.188;2023-02-27T17:24:30;1.70;;;0.80;;
51614;SDS011;37695;52.960;6.188;2023-02-27T17:26:56;2.67;;;0.90;;
51614;SDS011;37695;52.960;6.188;2023-02-27T17:29:21;1.60;;;0.80;;
51614;SDS011;37695;52.960;6.188;2023-02-27T17:31:48;1.70;;;0.82;;
51614;SDS011;37695;52.960;6.188;2023-02-27T17:34:13;1.05;;;0.80;;
51614;SDS011;37695;52.960;6.188;2023-02-27T17:36:41;1.60;;;0.80;;
51614;SDS011;37695;52.960;6.188;2023-02-27T17:39:07;5.47;;;1.65;;
51614;SDS011;37695;52.960;6.188;2023-02-27T17:41:34;2.47;;;1.00;;
51614;SDS011;37695;52.960;6.188;2023-02-27T17:44:00;1.67;;;0.88;;
51614;SDS011;37695;52.960;6.188;2023-02-27T17:46:26;1.27;;;0.75;;
51614;SDS011;37695;52.960;6.188;2023-02-27T17:48:53;2.00;;;1.00;;
51614;SDS011;37695;52.960;6.188;2023-02-27T17:51:25;3.42;;;1.08;;